Delphos, Iowa
Current Conditions -  °F | °C
As of 10:53 PM on Wednesday 22 Oct 2014 (Local Time) from KLWD Reporting Station
Few Clouds Few Clouds  
Wind Chill: 13°   Ceiling: Unl
Heat Index: 13°   Visibility: 10mi
Dew Point:   Wind: 10mph
Humidity: 67%   Direction: 140°SE
Pressure: 30.12"   Gusts: NA
Location:  40.6052°N, 94.3576°W
Report Text: KLWD 230353Z AUTO 14009KT 10SM FEW080 13/07 A3012 RMK AO2 SLP199 T01330072
Loading
Personal Weather Stations






























Interactive Weather Map
Tropical Storm Tracking
New forecast layout! Learn more

10-Day Weather Forecast

Advertisements
Track Severe Weather on mobile